Time;durP1;ratioP1;P1;durP2;ratioP2;P2;SDS_P1;SDS_P2;PMS_P1;PMS_P2;Temp;Humidity;BMP_temperature;BMP_pressure;BME280_temperature;BME280_humidity;BME280_pressure;Samples;Min_cycle;Max_cycle;Signal;HPM_P1;HPM_P2
2021/11/17 02:26:28;;;;;;;59.95;22.33;;;6.20;99.90;;;;;;5030259;28;20045;-55
2021/11/17 02:29:12;;;;;;;55.65;21.80;;;6.20;99.90;;;;;;5021281;28;20037;-51
2021/11/17 02:31:50;;;;;;;57.95;21.65;;;6.30;99.90;;;;;;5029359;28;20037;-49
2021/11/17 02:34:38;;;;;;;60.30;23.48;;;6.30;99.90;;;;;;5032870;28;20038;-52
2021/11/17 02:37:31;;;;;;;59.25;22.55;;;6.30;99.90;;;;;;5030675;28;20118;-52
2021/11/17 02:40:09;;;;;;;59.05;22.13;;;6.30;99.90;;;;;;5013714;28;20550;-53
2021/11/17 02:42:55;;;;;;;63.65;22.92;;;6.30;99.90;;;;;;5030081;28;20178;-53
2021/11/17 02:45:27;;;;;;;62.42;23.30;;;6.20;99.90;;;;;;5025978;28;20041;-53
2021/11/17 02:48:15;;;;;;;60.00;23.13;;;6.30;99.90;;;;;;5031088;28;20034;-53
2021/11/17 02:51:07;;;;;;;65.55;23.73;;;6.30;99.90;;;;;;4981309;28;20037;-53
2021/11/17 02:53:41;;;;;;;61.53;23.02;;;6.30;99.90;;;;;;5028812;28;20120;-55
2021/11/17 02:56:26;;;;;;;65.03;23.50;;;6.30;99.90;;;;;;5015294;28;20285;-53
2021/11/17 02:59:05;;;;;;;68.63;23.52;;;6.30;99.90;;;;;;5031076;28;20125;-52
2021/11/17 03:01:49;;;;;;;72.22;24.33;;;6.30;99.90;;;;;;5032103;28;20036;-56
2021/11/17 03:04:45;;;;;;;69.53;24.63;;;6.30;99.90;;;;;;5026736;28;20046;-52
2021/11/17 03:07:26;;;;;;;64.32;23.83;;;6.30;99.90;;;;;;5024817;28;20041;-53
2021/11/17 03:10:31;;;;;;;70.70;24.45;;;6.30;99.90;;;;;;5021054;28;20062;-51
2021/11/17 03:13:15;;;;;;;68.03;24.63;;;6.30;99.90;;;;;;5000628;28;20052;-50
2021/11/17 03:15:53;;;;;;;64.78;25.60;;;6.30;99.90;;;;;;5012617;28;20029;-51
2021/11/17 03:18:56;;;;;;;73.93;26.05;;;6.40;99.90;;;;;;5031308;28;20036;-50
2021/11/17 03:21:28;;;;;;;72.65;25.42;;;6.40;99.90;;;;;;5022123;28;20057;-50
2021/11/17 03:24:06;;;;;;;71.13;25.45;;;6.40;99.90;;;;;;5023984;28;20049;-51
2021/11/17 03:26:51;;;;;;;67.72;26.65;;;6.40;99.90;;;;;;4991800;28;20049;-50
2021/11/17 03:29:43;;;;;;;69.68;26.08;;;6.40;99.90;;;;;;4998306;28;20053;-51
2021/11/17 03:32:18;;;;;;;83.10;28.30;;;6.40;99.90;;;;;;5023204;28;20654;-49
2021/11/17 03:35:21;;;;;;;72.05;27.48;;;6.50;99.90;;;;;;5025154;28;20048;-49
2021/11/17 03:38:11;;;;;;;72.57;27.80;;;6.40;99.90;;;;;;4987297;28;20388;-51
2021/11/17 03:40:40;;;;;;;74.05;27.60;;;6.40;99.90;;;;;;5027498;28;20033;-53
2021/11/17 03:43:34;;;;;;;76.43;29.13;;;6.50;99.90;;;;;;5020818;28;20398;-51
2021/11/17 03:46:36;;;;;;;77.50;29.63;;;6.50;99.90;;;;;;5024004;28;20045;-50
2021/11/17 03:49:21;;;;;;;74.70;28.63;;;6.50;99.90;;;;;;5010431;28;20033;-51
2021/11/17 03:51:49;;;;;;;80.55;28.95;;;6.50;99.90;;;;;;5023961;28;20085;-51
2021/11/17 03:54:33;;;;;;;74.78;28.90;;;6.50;99.90;;;;;;5025664;28;20029;-51
2021/11/17 03:57:33;;;;;;;79.03;30.58;;;6.50;99.90;;;;;;5007402;28;20034;-51
2021/11/17 04:00:20;;;;;;;81.55;29.98;;;6.50;99.90;;;;;;5022274;28;20088;-51
2021/11/17 04:03:00;;;;;;;83.40;29.70;;;6.50;99.90;;;;;;5014842;28;20545;-49
2021/11/17 04:05:29;;;;;;;84.13;29.45;;;6.60;99.90;;;;;;4987152;28;20048;-52
2021/11/17 04:08:25;;;;;;;84.82;31.00;;;6.50;99.90;;;;;;5023273;28;20037;-53
2021/11/17 04:11:20;;;;;;;86.47;29.40;;;6.60;99.90;;;;;;5025828;28;20124;-53
2021/11/17 04:14:01;;;;;;;87.93;31.45;;;6.50;99.90;;;;;;5026296;28;20525;-50
2021/11/17 04:17:01;;;;;;;84.50;31.65;;;6.60;99.90;;;;;;4986484;28;20125;-52
2021/11/17 04:19:56;;;;;;;81.00;30.52;;;6.60;99.90;;;;;;5026868;28;20029;-54
2021/11/17 04:22:59;;;;;;;82.80;31.42;;;6.60;99.90;;;;;;5022884;28;20053;-53
2021/11/17 04:25:40;;;;;;;80.75;29.80;;;6.60;99.90;;;;;;5019016;28;20437;-53
2021/11/17 04:28:20;;;;;;;84.07;31.00;;;6.60;99.90;;;;;;5013431;28;20041;-53
2021/11/17 04:31:08;;;;;;;90.38;32.70;;;6.60;99.90;;;;;;5022233;28;20336;-52
2021/11/17 04:33:52;;;;;;;81.53;30.50;;;6.60;99.90;;;;;;5025279;28;20129;-51
2021/11/17 04:36:33;;;;;;;82.20;30.45;;;6.60;99.90;;;;;;5029360;28;20041;-50
2021/11/17 04:39:28;;;;;;;88.35;30.85;;;6.70;99.90;;;;;;5013752;28;20405;-52
2021/11/17 04:41:56;;;;;;;85.57;30.58;;;6.70;99.90;;;;;;5022503;28;20067;-51
2021/11/17 04:44:40;;;;;;;87.97;31.75;;;6.70;99.90;;;;;;5026407;28;20037;-50
2021/11/17 04:47:18;;;;;;;87.18;29.80;;;6.70;99.90;;;;;;5023139;28;20037;-50
2021/11/17 04:49:56;;;;;;;85.32;30.75;;;6.70;99.90;;;;;;5030951;28;20046;-49
2021/11/17 04:52:27;;;;;;;82.22;29.20;;;6.70;99.90;;;;;;5026708;28;20160;-49
2021/11/17 04:55:18;;;;;;;79.25;29.65;;;6.70;99.90;;;;;;5025326;28;20532;-54
2021/11/17 04:58:08;;;;;;;86.05;29.42;;;6.70;99.90;;;;;;5026244;28;20037;-52
2021/11/17 05:01:09;;;;;;;78.20;30.40;;;6.70;99.90;;;;;;5030727;28;20030;-50
2021/11/17 05:04:04;;;;;;;92.15;30.35;;;6.70;99.90;;;;;;5027426;28;20033;-50
2021/11/17 05:07:02;;;;;;;79.35;28.52;;;6.70;99.90;;;;;;4988633;28;20116;-51
2021/11/17 05:09:47;;;;;;;84.10;29.52;;;6.70;99.90;;;;;;5025458;28;20049;-50
2021/11/17 05:12:22;;;;;;;88.43;29.00;;;6.70;99.90;;;;;;5022639;28;20045;-50
2021/11/17 05:14:59;;;;;;;88.90;29.98;;;6.70;99.90;;;;;;5029830;28;20037;-52
2021/11/17 05:17:28;;;;;;;84.45;30.00;;;6.70;99.90;;;;;;5022886;28;20397;-51
2021/11/17 05:20:28;;;;;;;84.43;29.70;;;6.70;99.90;;;;;;4993746;28;20036;-51
2021/11/17 05:23:14;;;;;;;85.60;30.35;;;6.70;99.90;;;;;;5020997;28;20065;-53
2021/11/17 05:25:50;;;;;;;90.72;30.92;;;6.70;99.90;;;;;;4979311;28;20049;-50
2021/11/17 05:28:31;;;;;;;94.40;30.52;;;6.70;99.90;;;;;;4972980;28;20046;-50
2021/11/17 05:31:08;;;;;;;84.75;30.52;;;6.70;99.90;;;;;;5032541;28;20121;-50
2021/11/17 05:33:40;;;;;;;87.45;31.52;;;6.70;99.90;;;;;;5030805;28;20465;-52
2021/11/17 05:36:23;;;;;;;88.55;30.42;;;6.70;99.90;;;;;;5021312;28;20116;-49
2021/11/17 05:39:14;;;;;;;90.13;30.95;;;6.80;99.90;;;;;;5021676;28;20037;-50
2021/11/17 05:41:55;;;;;;;90.07;31.40;;;6.70;99.90;;;;;;5017326;28;20464;-52
2021/11/17 05:44:26;;;;;;;85.65;32.80;;;6.80;99.90;;;;;;5028776;28;20037;-53
2021/11/17 05:47:10;;;;;;;99.03;33.00;;;6.80;99.90;;;;;;5033295;28;20485;-56
2021/11/17 05:49:35;;;;;;;95.75;33.22;;;6.80;99.90;;;;;;5032506;28;20037;-52
2021/11/17 05:52:19;;;;;;;87.80;32.08;;;6.70;99.90;;;;;;5028027;28;20088;-52
2021/11/17 05:55:06;;;;;;;93.13;31.38;;;6.80;99.90;;;;;;5031940;28;20287;-54
2021/11/17 05:57:47;;;;;;;88.13;31.60;;;6.80;99.90;;;;;;5027917;28;20616;-53
2021/11/17 06:00:39;;;;;;;87.03;31.65;;;6.80;99.90;;;;;;5025882;28;20048;-51
2021/11/17 06:03:11;;;;;;;93.82;31.98;;;6.80;99.90;;;;;;5029208;28;20045;-53
2021/11/17 06:05:37;;;;;;;82.95;30.80;;;6.80;99.90;;;;;;5026454;28;20037;-53
2021/11/17 06:08:02;;;;;;;93.68;32.63;;;6.80;99.90;;;;;;5014665;28;20140;-50
2021/11/17 06:10:31;;;;;;;91.20;32.67;;;6.80;99.90;;;;;;5034162;28;20080;-51
2021/11/17 06:12:57;;;;;;;93.85;32.72;;;6.80;99.90;;;;;;5022420;28;20045;-54
2021/11/17 06:15:24;;;;;;;92.05;34.75;;;6.80;99.90;;;;;;5027406;28;20057;-50
2021/11/17 06:17:53;;;;;;;87.82;31.25;;;6.90;99.90;;;;;;4996403;28;20480;-50
2021/11/17 06:20:20;;;;;;;93.43;32.58;;;6.80;99.90;;;;;;5030405;28;20053;-48
2021/11/17 06:22:49;;;;;;;83.45;32.15;;;6.90;99.90;;;;;;5023665;28;20046;-51
2021/11/17 06:25:17;;;;;;;96.35;32.83;;;6.80;99.90;;;;;;5033009;28;20041;-50
2021/11/17 06:27:50;;;;;;;88.75;32.88;;;6.80;99.90;;;;;;5032000;28;20049;-50
2021/11/17 06:30:18;;;;;;;83.25;31.00;;;6.90;99.90;;;;;;5019232;28;20049;-51
2021/11/17 06:32:45;;;;;;;82.03;33.05;;;6.90;99.90;;;;;;5022441;28;20471;-49
2021/11/17 06:35:13;;;;;;;83.68;31.17;;;6.90;99.90;;;;;;5014959;28;20096;-50
2021/11/17 06:38:03;;;;;;;96.57;33.80;;;6.90;99.90;;;;;;5042846;28;20037;-51
2021/11/17 06:40:29;;;;;;;85.68;30.77;;;6.80;99.90;;;;;;5014681;28;20124;-48
2021/11/17 06:42:57;;;;;;;88.30;32.25;;;6.90;99.90;;;;;;5031434;28;20444;-50
2021/11/17 06:45:33;;;;;;;102.25;34.17;;;6.80;99.90;;;;;;5006754;28;20413;-47
2021/11/17 06:47:59;;;;;;;87.93;32.22;;;6.80;99.90;;;;;;5013850;28;20485;-51
2021/11/17 06:50:26;;;;;;;92.90;33.03;;;6.80;99.90;;;;;;5032546;28;20039;-52
2021/11/17 06:52:52;;;;;;;95.40;34.65;;;6.80;99.90;;;;;;5030321;28;20034;-51
2021/11/17 06:55:18;;;;;;;89.15;33.30;;;6.80;99.90;;;;;;5022193;28;20041;-51
2021/11/17 06:57:44;;;;;;;90.50;31.92;;;6.80;99.90;;;;;;5020019;28;20053;-50
2021/11/17 07:00:14;;;;;;;92.82;33.50;;;6.90;99.90;;;;;;5011334;28;20112;-51
2021/11/17 07:02:41;;;;;;;85.65;32.60;;;6.90;99.90;;;;;;5022392;28;20120;-52
2021/11/17 07:05:08;;;;;;;80.70;31.63;;;6.90;99.90;;;;;;5023278;28;20516;-51
2021/11/17 07:07:34;;;;;;;88.50;32.05;;;6.90;99.90;;;;;;5022584;28;20120;-53
2021/11/17 07:10:00;;;;;;;87.07;31.67;;;6.90;99.90;;;;;;5023092;28;20049;-51
2021/11/17 07:12:25;;;;;;;83.90;31.83;;;6.90;99.90;;;;;;5028990;28;20037;-51
2021/11/17 07:14:52;;;;;;;89.32;32.70;;;6.90;99.90;;;;;;5022927;28;20038;-51
2021/11/17 07:17:18;;;;;;;95.25;33.33;;;6.90;99.90;;;;;;5023485;28;20048;-51
2021/11/17 07:19:44;;;;;;;93.22;32.45;;;6.90;99.90;;;;;;5023444;28;20524;-51
2021/11/17 07:22:10;;;;;;;81.70;31.90;;;6.90;99.90;;;;;;5000816;28;20073;-49
2021/11/17 07:24:38;;;;;;;82.32;31.63;;;7.00;99.90;;;;;;5015152;28;20494;-51
2021/11/17 07:27:05;;;;;;;87.65;32.13;;;6.90;99.90;;;;;;5028947;22;20072;-52
2021/11/17 07:29:31;;;;;;;91.75;32.47;;;7.00;99.90;;;;;;5018820;28;20065;-52
2021/11/17 07:31:58;;;;;;;92.03;33.03;;;7.00;99.90;;;;;;5005089;28;20030;-54
2021/11/17 07:34:24;;;;;;;82.47;33.10;;;7.00;99.90;;;;;;4990607;28;20040;-51
2021/11/17 07:36:50;;;;;;;94.07;34.08;;;7.00;99.90;;;;;;5020911;28;20404;-54
2021/11/17 07:39:17;;;;;;;87.20;32.45;;;7.00;99.90;;;;;;5016327;28;20385;-51
2021/11/17 07:41:52;;;;;;;81.90;33.15;;;7.00;99.90;;;;;;5006163;28;20049;-55
2021/11/17 07:44:19;;;;;;;88.43;32.17;;;7.00;99.90;;;;;;5023797;28;20517;-52
2021/11/17 07:46:46;;;;;;;80.07;31.75;;;7.10;99.90;;;;;;5018365;28;20168;-49
2021/11/17 07:49:14;;;;;;;87.60;31.25;;;7.10;99.90;;;;;;5006613;28;20042;-52
2021/11/17 07:51:41;;;;;;;94.30;34.53;;;7.10;99.90;;;;;;5018217;28;20034;-53
2021/11/17 07:54:07;;;;;;;85.93;33.13;;;7.10;99.90;;;;;;5029501;28;20427;-49
2021/11/17 07:56:35;;;;;;;89.28;32.75;;;7.10;99.90;;;;;;4994513;28;20061;-49
2021/11/17 07:59:02;;;;;;;100.13;34.17;;;7.10;99.90;;;;;;5030245;28;20030;-52
2021/11/17 08:01:29;;;;;;;83.93;31.33;;;7.10;99.90;;;;;;5030794;28;20037;-50
2021/11/17 08:03:54;;;;;;;93.90;34.28;;;7.10;99.90;;;;;;5028655;28;20049;-51
2021/11/17 08:06:23;;;;;;;88.88;32.35;;;7.10;99.90;;;;;;5017607;28;20053;-53
2021/11/17 08:08:49;;;;;;;88.00;32.95;;;7.20;99.90;;;;;;5011919;28;20057;-52
2021/11/17 08:11:15;;;;;;;86.97;33.92;;;7.20;99.90;;;;;;4999947;28;20094;-51
2021/11/17 08:13:42;;;;;;;95.38;32.45;;;7.20;99.90;;;;;;5018539;28;20538;-53
2021/11/17 08:16:08;;;;;;;89.35;33.08;;;7.30;99.90;;;;;;5015744;28;20077;-49
2021/11/17 08:18:35;;;;;;;92.78;32.90;;;7.30;99.90;;;;;;5029464;28;20036;-49
2021/11/17 08:21:02;;;;;;;90.30;35.03;;;7.40;99.90;;;;;;5025089;28;20492;-48
2021/11/17 08:23:27;;;;;;;93.60;33.20;;;7.40;99.90;;;;;;5027542;28;20045;-49
2021/11/17 08:25:54;;;;;;;100.93;35.28;;;7.40;99.90;;;;;;5025455;28;20041;-51
2021/11/17 08:28:19;;;;;;;107.68;35.90;;;7.50;99.90;;;;;;5026769;28;20120;-52
2021/11/17 08:30:45;;;;;;;95.30;34.65;;;7.50;99.90;;;;;;5028886;28;20140;-49
2021/11/17 08:33:13;;;;;;;99.50;36.13;;;7.50;99.90;;;;;;5028242;28;20041;-49
2021/11/17 08:35:40;;;;;;;98.68;34.42;;;7.50;99.90;;;;;;5029559;28;20048;-50
2021/11/17 08:38:10;;;;;;;100.72;35.00;;;7.60;99.90;;;;;;5030097;28;20044;-49
2021/11/17 08:40:39;;;;;;;102.18;34.47;;;7.60;99.90;;;;;;5030561;28;20140;-51
2021/11/17 08:43:07;;;;;;;103.68;34.47;;;7.60;99.90;;;;;;5031284;28;20041;-49
2021/11/17 08:45:34;;;;;;;103.75;35.58;;;7.70;99.90;;;;;;5026203;28;20033;-53
2021/11/17 08:48:01;;;;;;;100.53;35.95;;;7.70;99.90;;;;;;5007251;28;20191;-49
2021/11/17 08:50:29;;;;;;;111.45;36.63;;;7.70;99.90;;;;;;5011399;28;20086;-50
2021/11/17 08:52:56;;;;;;;101.15;35.75;;;7.80;99.90;;;;;;5024299;28;20455;-48
2021/11/17 08:55:24;;;;;;;105.15;36.53;;;7.80;99.90;;;;;;5023147;28;20494;-50
2021/11/17 08:57:50;;;;;;;99.25;35.80;;;7.90;99.90;;;;;;5027145;28;20042;-50
2021/11/17 09:00:18;;;;;;;101.72;35.03;;;8.00;99.90;;;;;;5030636;28;20042;-52
2021/11/17 09:02:46;;;;;;;99.32;35.85;;;8.00;99.90;;;;;;5026429;28;20049;-52
2021/11/17 09:05:16;;;;;;;94.95;34.40;;;8.00;99.90;;;;;;5031776;28;20485;-49
2021/11/17 09:07:44;;;;;;;96.43;33.97;;;8.10;99.90;;;;;;5025453;28;20041;-52
2021/11/17 09:10:13;;;;;;;92.32;33.80;;;8.10;99.90;;;;;;5034634;28;20042;-49
2021/11/17 09:12:39;;;;;;;96.90;34.22;;;8.20;99.90;;;;;;5013610;28;20050;-51
2021/11/17 09:15:09;;;;;;;92.57;33.88;;;8.20;99.90;;;;;;5021669;28;20036;-49
2021/11/17 09:17:36;;;;;;;97.57;35.05;;;8.20;99.90;;;;;;5010382;28;20048;-50
2021/11/17 09:20:03;;;;;;;97.93;36.50;;;8.20;99.90;;;;;;5016534;28;20037;-50
2021/11/17 09:22:29;;;;;;;93.85;34.65;;;8.20;99.90;;;;;;5034239;28;20417;-49
2021/11/17 09:24:55;;;;;;;97.78;33.90;;;8.30;99.90;;;;;;5028787;28;20045;-53
2021/11/17 09:27:21;;;;;;;98.95;34.22;;;8.30;99.90;;;;;;5004393;28;20116;-50
2021/11/17 09:29:47;;;;;;;97.07;33.72;;;8.20;99.90;;;;;;5032514;28;20037;-50
2021/11/17 09:32:13;;;;;;;101.50;34.17;;;8.20;99.90;;;;;;4999820;28;20072;-50
2021/11/17 09:34:39;;;;;;;106.25;36.75;;;8.30;99.90;;;;;;5032427;28;20088;-51
2021/11/17 09:37:07;;;;;;;101.82;35.83;;;8.30;99.90;;;;;;5033773;28;20120;-49
2021/11/17 09:39:34;;;;;;;97.57;33.85;;;8.20;99.90;;;;;;5029775;28;20033;-51
2021/11/17 09:42:01;;;;;;;99.93;34.33;;;8.30;99.90;;;;;;5026532;28;20034;-49
2021/11/17 09:44:30;;;;;;;100.32;33.95;;;8.20;99.90;;;;;;5020837;28;20045;-49
2021/11/17 09:47:00;;;;;;;94.70;32.28;;;8.30;99.90;;;;;;5023692;28;20055;-49
2021/11/17 09:49:33;;;;;;;95.55;32.30;;;8.30;99.90;;;;;;5027427;28;20482;-50
2021/11/17 09:52:04;;;;;;;95.22;31.55;;;8.30;99.90;;;;;;5006776;28;20052;-49
2021/11/17 09:54:50;;;;;;;95.32;30.98;;;8.30;99.90;;;;;;5030140;28;20045;-49
2021/11/17 09:57:35;;;;;;;81.88;28.63;;;8.30;99.90;;;;;;5033630;28;20040;-51
2021/11/17 10:00:16;;;;;;;86.88;29.88;;;8.30;99.90;;;;;;5020779;28;20120;-49
2021/11/17 10:03:06;;;;;;;84.28;30.70;;;8.40;99.90;;;;;;5027285;28;20046;-50
2021/11/17 10:11:50;;;;;;;85.32;29.33;;;8.50;99.90;;;;;;4988200;28;20590;-49
2021/11/17 10:15:00;;;;;;;86.68;29.38;;;8.50;99.90;;;;;;5027642;28;20033;-50
2021/11/17 10:17:48;;;;;;;85.47;28.52;;;8.60;99.90;;;;;;4948563;29;20171;-52
2021/11/17 10:20:22;;;;;;;85.95;30.38;;;8.60;99.90;;;;;;5025738;28;20072;-50
2021/11/17 10:23:05;;;;;;;94.47;30.17;;;8.70;99.90;;;;;;5033484;28;20045;-52
2021/11/17 10:25:39;;;;;;;;;;;8.70;99.90;;;;;;5036538;28;20395;-50
2021/11/17 10:28:05;;;;;;;85.90;31.20;;;8.70;99.90;;;;;;5029960;28;19921;-49
2021/11/17 10:30:37;;;;;;;86.30;31.15;;;8.80;99.90;;;;;;5014939;28;20053;-51
2021/11/17 10:33:18;;;;;;;79.03;29.25;;;8.80;99.90;;;;;;5011130;28;20135;-51
2021/11/17 10:36:25;;;;;;;91.53;31.90;;;8.90;99.90;;;;;;5031957;28;20045;-52
2021/11/17 10:38:57;;;;;;;81.90;30.05;;;8.90;99.90;;;;;;5012244;28;20579;-52
2021/11/17 10:41:32;;;;;;;95.03;31.02;;;9.00;99.90;;;;;;5026077;28;20038;-49
2021/11/17 10:44:03;;;;;;;98.63;31.80;;;9.00;99.90;;;;;;5005774;28;20034;-49
2021/11/17 10:46:53;;;;;;;91.40;30.38;;;9.10;99.90;;;;;;5025854;28;20053;-52
2021/11/17 10:49:27;;;;;;;76.82;29.30;;;9.10;99.90;;;;;;5028564;28;20041;-51
2021/11/17 10:51:55;;;;;;;81.05;30.67;;;9.10;99.90;;;;;;5024479;28;20051;-52
2021/11/17 10:54:24;;;;;;;91.30;30.25;;;9.10;99.90;;;;;;5027280;28;20113;-50
2021/11/17 10:57:02;;;;;;;94.32;31.63;;;9.20;99.90;;;;;;5032250;28;20433;-50
2021/11/17 10:59:28;;;;;;;88.43;30.15;;;9.20;99.90;;;;;;5031692;28;20070;-51
2021/11/17 11:01:53;;;;;;;75.18;28.38;;;9.30;99.90;;;;;;5028414;28;20090;-52
2021/11/17 11:04:24;;;;;;;78.25;28.17;;;9.30;99.90;;;;;;5014585;28;20033;-50
2021/11/17 11:07:16;;;;;;;83.05;29.85;;;9.30;99.90;;;;;;5027010;28;20033;-53
2021/11/17 11:09:56;;;;;;;78.93;29.43;;;9.30;99.90;;;;;;5032073;28;20094;-51
2021/11/17 11:12:26;;;;;;;67.03;27.25;;;9.30;99.90;;;;;;5032038;28;20052;-49
2021/11/17 11:14:59;;;;;;;74.45;27.85;;;9.40;99.90;;;;;;5036932;28;20033;-49
2021/11/17 11:17:25;;;;;;;;;;;9.50;99.90;;;;;;5033358;28;20037;-53
2021/11/17 11:20:01;;;;;;;65.93;24.67;;;9.60;99.90;;;;;;5027715;28;20015;-50
2021/11/17 11:22:27;;;;;;;74.22;26.40;;;9.60;99.90;;;;;;5031430;28;20497;-49
2021/11/17 11:24:58;;;;;;;66.43;25.98;;;9.70;99.90;;;;;;5028180;28;20069;-51
2021/11/17 11:27:27;;;;;;;63.80;24.13;;;9.80;99.90;;;;;;5031288;28;20118;-49
2021/11/17 11:30:07;;;;;;;57.35;23.75;;;9.90;99.90;;;;;;5027148;28;20063;-53
2021/11/17 11:32:33;;;;;;;53.15;22.23;;;10.00;99.90;;;;;;5024731;28;20052;-50
2021/11/17 11:34:58;;;;;;;52.45;22.05;;;10.00;99.90;;;;;;5030221;28;20033;-49
2021/11/17 11:37:23;;;;;;;49.72;20.00;;;10.10;99.90;;;;;;5022205;28;20034;-52
2021/11/17 11:39:52;;;;;;;46.78;18.08;;;10.10;99.90;;;;;;5032104;28;20386;-53
2021/11/17 11:42:41;;;;;;;46.88;16.38;;;10.20;99.90;;;;;;5031996;28;20112;-52
2021/11/17 11:45:09;;;;;;;43.10;15.43;;;10.20;99.90;;;;;;5028665;28;20042;-53
2021/11/17 11:51:22;;;;;;;35.78;12.73;;;10.40;99.90;;;;;;5523106;22;20414;-53
2021/11/17 11:54:15;;;;;;;35.55;11.63;;;10.40;99.90;;;;;;5022173;28;20048;-54
2021/11/17 11:56:48;;;;;;;;;;;10.40;99.90;;;;;;5027498;28;20046;-54
2021/11/17 11:59:29;;;;;;;30.05;9.60;;;10.50;99.90;;;;;;5024763;28;19917;-54
2021/11/17 12:02:20;;;;;;;28.65;9.75;;;10.60;99.90;;;;;;5002699;28;20046;-54
2021/11/17 12:04:49;;;;;;;29.58;7.85;;;10.60;99.90;;;;;;5038772;28;20037;-54
2021/11/17 12:07:26;;;;;;;27.05;7.32;;;10.70;99.90;;;;;;5024440;28;20040;-53
2021/11/17 12:10:21;;;;;;;24.13;7.47;;;10.70;99.90;;;;;;5022997;28;20041;-54
2021/11/17 12:12:46;;;;;;;30.73;5.53;;;10.80;99.90;;;;;;5022589;28;20135;-50
2021/11/17 12:15:26;;;;;;;20.20;4.40;;;10.80;99.90;;;;;;5013454;28;20064;-52
2021/11/17 12:18:07;;;;;;;22.73;4.55;;;10.90;99.90;;;;;;5016743;28;20511;-53
2021/11/17 12:20:37;;;;;;;22.23;4.25;;;10.90;99.90;;;;;;5017203;28;20029;-51
2021/11/17 12:23:17;;;;;;;22.50;4.18;;;10.90;99.90;;;;;;5018249;28;20041;-52
2021/11/17 12:26:02;;;;;;;21.13;4.10;;;10.90;99.90;;;;;;4982459;28;20050;-53
2021/11/17 12:28:32;;;;;;;23.27;3.45;;;10.90;99.90;;;;;;5014774;28;20617;-51
2021/11/17 12:31:03;;;;;;;17.02;3.60;;;10.90;99.90;;;;;;4971726;28;20041;-53
2021/11/17 12:33:46;;;;;;;23.07;3.73;;;10.90;99.90;;;;;;5012247;28;20053;-50
2021/11/17 12:36:21;;;;;;;20.27;3.33;;;10.90;99.90;;;;;;5014371;28;20071;-53
2021/11/17 12:38:48;;;;;;;25.27;4.38;;;10.80;99.90;;;;;;5016577;28;20076;-52
2021/11/17 12:41:18;;;;;;;22.40;4.50;;;10.80;99.90;;;;;;4986065;28;20030;-50
2021/11/17 12:44:06;;;;;;;18.55;3.10;;;10.70;99.90;;;;;;5022935;28;20054;-53
2021/11/17 12:46:45;;;;;;;21.52;3.85;;;10.70;99.90;;;;;;5031047;28;20402;-51
2021/11/17 12:49:39;;;;;;;18.33;3.28;;;10.70;99.90;;;;;;5020820;28;20048;-53
2021/11/17 12:52:29;;;;;;;16.35;3.28;;;10.70;99.90;;;;;;5030437;28;20072;-49
2021/11/17 12:55:03;;;;;;;18.70;2.95;;;10.70;99.90;;;;;;5000056;28;20041;-52
2021/11/17 12:57:34;;;;;;;23.98;3.78;;;10.60;99.90;;;;;;5024944;28;20034;-51
2021/11/17 13:00:19;;;;;;;21.95;3.20;;;10.60;99.90;;;;;;5023498;28;20375;-52
2021/11/17 13:02:54;;;;;;;18.02;4.03;;;10.60;99.90;;;;;;5028183;28;20033;-52
2021/11/17 13:05:34;;;;;;;22.63;4.05;;;10.70;99.90;;;;;;5022056;28;20084;-49
2021/11/17 13:08:02;;;;;;;18.95;2.92;;;10.70;99.90;;;;;;5022133;28;20121;-50
2021/11/17 13:10:49;;;;;;;15.90;3.33;;;10.70;99.90;;;;;;5032016;28;20041;-54
2021/11/17 13:13:21;;;;;;;17.27;3.40;;;10.80;99.90;;;;;;5027016;28;20041;-51
2021/11/17 13:15:50;;;;;;;22.02;3.30;;;10.80;99.90;;;;;;5007394;28;20041;-50
2021/11/17 13:18:35;;;;;;;16.83;3.22;;;10.80;99.90;;;;;;5030631;28;20120;-52
2021/11/17 13:21:31;;;;;;;14.00;3.03;;;10.90;99.90;;;;;;5021027;28;20034;-50
2021/11/17 13:23:56;;;;;;;14.00;2.53;;;10.90;99.90;;;;;;5021700;28;20048;-50
2021/11/17 13:26:34;;;;;;;23.23;3.10;;;10.90;99.90;;;;;;5027219;28;20408;-51
2021/11/17 13:29:20;;;;;;;18.95;3.58;;;10.90;99.90;;;;;;5020658;28;20056;-48
2021/11/17 13:31:46;;;;;;;13.02;3.30;;;10.90;99.90;;;;;;5383609;22;20131;-54
2021/11/17 13:34:27;;;;;;;15.43;3.47;;;10.80;99.90;;;;;;5025490;28;20081;-54
2021/11/17 13:36:55;;;;;;;18.08;2.70;;;10.70;99.90;;;;;;5021957;28;20037;-54
2021/11/17 13:39:25;;;;;;;14.10;3.08;;;10.70;99.90;;;;;;5034243;28;20041;-54
2021/11/17 13:41:54;;;;;;;17.58;3.45;;;10.60;99.90;;;;;;5026924;28;20072;-52
2021/11/17 13:44:24;;;;;;;13.18;2.72;;;10.60;99.90;;;;;;5007440;28;20041;-52
2021/11/17 13:50:40;;;;;;;14.73;2.60;;;10.50;99.90;;;;;;5504601;22;20572;-85
2021/11/17 13:53:08;;;;;;;11.75;2.92;;;10.40;99.90;;;;;;4999207;28;20037;-85
2021/11/17 13:55:39;;;;;;;18.15;2.92;;;10.40;99.90;;;;;;4994237;28;20041;-85
2021/11/17 13:58:05;;;;;;;12.77;2.70;;;10.40;99.90;;;;;;4987441;28;20120;-85
2021/11/17 14:00:32;;;;;;;15.93;2.92;;;10.40;99.90;;;;;;5007188;28;20568;-85
2021/11/17 14:02:59;;;;;;;8.95;2.60;;;10.30;99.90;;;;;;5006623;28;20419;-85
2021/11/17 14:05:25;;;;;;;12.75;2.53;;;10.30;99.90;;;;;;5008205;28;20041;-85
2021/11/17 14:07:51;;;;;;;18.23;3.70;;;10.30;99.90;;;;;;5014458;28;20052;-85
2021/11/17 14:10:19;;;;;;;12.85;2.95;;;10.20;99.90;;;;;;5012908;28;20048;-85
2021/11/17 14:12:45;;;;;;;12.82;3.17;;;10.20;99.90;;;;;;5004156;28;20045;-85
2021/11/17 14:15:11;;;;;;;20.35;3.42;;;10.20;99.90;;;;;;5015690;28;20040;-85
2021/11/17 14:17:38;;;;;;;17.10;2.42;;;10.20;99.90;;;;;;4994286;28;20030;-85
2021/11/17 14:20:06;;;;;;;15.50;3.05;;;10.20;99.90;;;;;;5004284;28;20439;-85
2021/11/17 14:22:33;;;;;;;13.50;2.85;;;10.30;99.90;;;;;;5012494;28;20041;-85
2021/11/17 14:25:07;;;;;;;20.52;3.28;;;10.30;99.90;;;;;;4994993;28;20065;-85
2021/11/17 14:27:37;;;;;;;15.57;2.92;;;10.30;99.90;;;;;;5006344;28;20029;-84
2021/11/17 14:30:28;;;;;;;20.83;2.72;;;10.20;99.90;;;;;;5013335;28;20469;-85
2021/11/17 14:32:54;;;;;;;14.80;3.13;;;10.30;99.90;;;;;;4988255;28;20055;-85
2021/11/17 14:35:23;;;;;;;13.82;2.35;;;10.20;99.90;;;;;;4997443;28;20128;-85
2021/11/17 14:37:48;;;;;;;13.32;2.80;;;10.20;99.90;;;;;;4990316;28;20400;-85
2021/11/17 14:40:17;;;;;;;14.18;3.25;;;10.10;99.90;;;;;;5012522;28;20029;-85
2021/11/17 14:42:43;;;;;;;17.67;2.70;;;10.10;99.90;;;;;;4992379;28;20111;-85
2021/11/17 14:45:14;;;;;;;16.75;2.72;;;10.10;99.90;;;;;;4998781;28;20049;-85
2021/11/17 14:47:41;;;;;;;12.85;2.60;;;10.10;99.90;;;;;;4981588;28;20042;-84
2021/11/17 14:50:07;;;;;;;15.02;2.70;;;10.00;99.90;;;;;;5009172;28;20087;-85
2021/11/17 14:52:33;;;;;;;14.68;2.50;;;10.00;99.90;;;;;;4994221;28;20042;-85
2021/11/17 14:54:59;;;;;;;16.15;2.45;;;10.00;99.90;;;;;;5005962;28;20045;-85
2021/11/17 14:57:25;;;;;;;12.20;2.13;;;9.90;99.90;;;;;;4994249;28;20033;-85
2021/11/17 14:59:53;;;;;;;18.67;3.30;;;9.90;99.90;;;;;;5004751;28;20041;-86
2021/11/17 15:02:19;;;;;;;14.55;2.60;;;9.80;99.90;;;;;;5006231;28;20415;-85
2021/11/17 15:04:45;;;;;;;10.15;2.10;;;9.80;99.90;;;;;;5009623;28;20052;-85
2021/11/17 15:07:12;;;;;;;16.55;2.72;;;9.80;99.90;;;;;;5002593;28;20412;-85
2021/11/17 15:09:38;;;;;;;12.07;2.35;;;9.70;99.90;;;;;;4982397;28;20044;-85
2021/11/17 15:12:21;;;;;;;12.55;2.58;;;9.70;99.90;;;;;;4993569;28;20423;-85
2021/11/17 15:14:48;;;;;;;9.93;2.22;;;9.60;99.90;;;;;;5012744;28;20037;-85
2021/11/17 15:17:15;;;;;;;11.50;2.10;;;9.60;99.90;;;;;;5005040;28;20033;-85
2021/11/17 15:19:41;;;;;;;9.95;2.15;;;9.50;99.90;;;;;;4995365;28;20076;-85
2021/11/17 15:22:07;;;;;;;15.02;2.67;;;9.50;99.90;;;;;;4990225;28;20038;-85
2021/11/17 15:24:34;;;;;;;19.10;2.60;;;9.40;99.90;;;;;;5007429;28;20073;-85
2021/11/17 15:27:08;;;;;;;11.70;2.70;;;9.40;99.90;;;;;;4989310;28;20096;-85
2021/11/17 15:29:37;;;;;;;15.43;2.40;;;9.40;99.90;;;;;;4982534;28;20665;-85
2021/11/17 15:32:04;;;;;;;13.07;2.78;;;9.30;99.90;;;;;;4980679;28;20029;-84
2021/11/17 15:34:30;;;;;;;11.57;2.25;;;9.30;99.90;;;;;;4986831;28;20065;-85
2021/11/17 15:36:56;;;;;;;11.75;2.10;;;9.20;99.90;;;;;;4989319;28;20068;-84
2021/11/17 15:39:22;;;;;;;8.70;2.00;;;9.20;99.90;;;;;;5003506;28;20034;-85
2021/11/17 15:41:47;;;;;;;10.77;2.08;;;9.10;99.90;;;;;;5012426;28;20025;-85
2021/11/17 15:44:14;;;;;;;11.07;1.90;;;9.10;99.90;;;;;;5006171;28;20034;-85
2021/11/17 15:46:51;;;;;;;15.05;2.15;;;9.10;99.90;;;;;;4997385;28;20033;-85
2021/11/17 15:49:17;;;;;;;9.82;2.42;;;9.10;99.90;;;;;;4987490;28;20038;-85
2021/11/17 15:51:44;;;;;;;11.27;2.08;;;9.00;99.90;;;;;;5002034;28;20052;-84
2021/11/17 15:54:09;;;;;;;9.23;2.35;;;9.20;99.90;;;;;;4997272;28;20061;-85